Time;durP1;ratioP1;P1;durP2;ratioP2;P2;SDS_P1;SDS_P2;PMS_P1;PMS_P2;Temp;Humidity;BMP_temperature;BMP_pressure;BME280_temperature;BME280_humidity;BME280_pressure;Samples;Min_cycle;Max_cycle;Signal;HPM_P1;HPM_P2
2022/07/02 00:00:03;;;;;;;1.90;0.87;;;12.00;99.90;;;;;;5092532;28;20410;-76
2022/07/02 00:02:34;;;;;;;2.80;1.40;;;12.00;99.90;;;;;;5092260;28;20212;-78
2022/07/02 00:05:05;;;;;;;7.20;1.90;;;11.90;99.90;;;;;;5092490;28;20453;-79
2022/07/02 00:07:31;;;;;;;5.40;1.63;;;11.90;99.90;;;;;;5091887;28;20832;-76
2022/07/02 00:09:58;;;;;;;2.60;1.13;;;11.90;99.90;;;;;;5091960;28;20429;-78
2022/07/02 00:12:24;;;;;;;1.70;0.83;;;11.90;99.90;;;;;;5081721;28;20264;-76
2022/07/02 00:14:53;;;;;;;3.00;1.17;;;11.90;99.90;;;;;;5090033;28;20419;-76
2022/07/02 00:17:19;;;;;;;4.67;1.30;;;11.90;99.90;;;;;;5090167;28;20854;-77
2022/07/02 00:19:45;;;;;;;2.93;1.10;;;11.80;99.90;;;;;;5089796;28;20431;-77
2022/07/02 00:22:12;;;;;;;6.63;0.90;;;11.80;99.90;;;;;;5089304;28;20435;-76
2022/07/02 00:24:40;;;;;;;1.50;0.70;;;11.80;99.90;;;;;;5090070;28;20247;-76
2022/07/02 00:27:09;;;;;;;3.83;0.80;;;11.80;99.90;;;;;;5087163;28;20419;-77
2022/07/02 00:29:43;;;;;;;1.70;1.00;;;11.80;99.90;;;;;;5089774;28;20438;-73
2022/07/02 00:32:08;;;;;;;1.87;0.87;;;11.80;99.90;;;;;;5089355;28;20446;-77
2022/07/02 00:34:37;;;;;;;4.10;0.70;;;11.80;99.90;;;;;;5089473;28;20418;-76
2022/07/02 00:37:03;;;;;;;1.87;1.07;;;11.80;99.90;;;;;;5089393;28;20199;-73
2022/07/02 00:39:29;;;;;;;2.17;0.90;;;11.90;99.90;;;;;;5089628;28;20414;-77
2022/07/02 00:41:55;;;;;;;1.87;1.00;;;11.70;99.90;;;;;;5090388;28;20515;-76
2022/07/02 00:44:22;;;;;;;2.00;0.87;;;11.70;99.90;;;;;;5091048;28;20704;-76
2022/07/02 00:46:49;;;;;;;2.07;1.07;;;11.80;99.90;;;;;;5091357;28;20410;-76
2022/07/02 00:49:16;;;;;;;2.00;1.20;;;11.80;99.90;;;;;;5089633;28;20785;-76
2022/07/02 00:51:41;;;;;;;2.00;1.07;;;11.80;99.90;;;;;;5090214;28;20418;-76
2022/07/02 00:54:07;;;;;;;4.13;1.10;;;11.90;99.90;;;;;;5091120;28;20455;-76
2022/07/02 00:56:33;;;;;;;1.77;0.83;;;11.80;99.90;;;;;;5089565;28;20243;-76
2022/07/02 00:59:01;;;;;;;1.50;0.70;;;11.90;99.90;;;;;;5090997;28;20253;-79
2022/07/02 01:01:27;;;;;;;7.00;1.20;;;11.90;99.90;;;;;;5089295;28;20184;-78
2022/07/02 01:03:57;;;;;;;2.70;1.23;;;11.90;99.90;;;;;;5090596;28;20478;-77
2022/07/02 01:06:25;;;;;;;1.50;0.70;;;11.90;99.90;;;;;;5091225;28;20188;-78
2022/07/02 01:11:40;;;;;;;1.57;0.80;;;11.90;99.90;;;;;;5086415;28;20798;-77
2022/07/02 01:14:06;;;;;;;2.60;0.90;;;11.90;99.90;;;;;;5087188;28;20434;-78
2022/07/02 01:16:31;;;;;;;2.13;1.00;;;11.80;99.90;;;;;;5088512;28;20417;-75
2022/07/02 01:18:57;;;;;;;2.53;0.80;;;11.80;99.90;;;;;;5087455;28;20180;-76
2022/07/02 01:21:22;;;;;;;7.43;0.87;;;11.90;99.90;;;;;;5088367;28;20191;-76
2022/07/02 01:23:48;;;;;;;1.50;0.70;;;11.90;99.90;;;;;;5089773;28;20257;-75
2022/07/02 01:26:14;;;;;;;1.30;0.67;;;12.00;99.90;;;;;;5088108;28;20758;-80
2022/07/02 01:28:39;;;;;;;1.40;0.80;;;11.90;99.90;;;;;;5088927;28;20168;-76
2022/07/02 01:31:05;;;;;;;1.63;0.77;;;11.90;99.90;;;;;;5087761;28;20173;-76
2022/07/02 01:33:31;;;;;;;1.77;0.80;;;11.90;99.90;;;;;;5088428;28;20196;-73
2022/07/02 01:35:58;;;;;;;1.90;0.77;;;11.80;99.90;;;;;;5088652;28;20601;-76
2022/07/02 01:38:23;;;;;;;1.67;0.77;;;11.70;99.90;;;;;;5088894;28;20415;-76
2022/07/02 01:40:49;;;;;;;1.87;0.67;;;11.70;99.90;;;;;;5088638;28;20429;-77
2022/07/02 01:43:15;;;;;;;1.97;0.97;;;11.60;99.90;;;;;;5089373;28;20203;-77
2022/07/02 01:45:40;;;;;;;1.80;0.90;;;11.60;99.90;;;;;;5090364;28;20179;-75
2022/07/02 01:48:06;;;;;;;1.80;1.10;;;11.60;99.90;;;;;;5088936;28;20353;-76
2022/07/02 01:50:35;;;;;;;4.93;1.17;;;11.50;99.90;;;;;;5090192;28;20173;-77
2022/07/02 01:53:01;;;;;;;2.67;0.80;;;11.50;99.90;;;;;;5089557;28;20204;-78
2022/07/02 01:55:27;;;;;;;1.87;0.90;;;11.50;99.90;;;;;;5090408;28;20414;-76
2022/07/02 01:57:52;;;;;;;1.50;0.60;;;11.50;99.90;;;;;;5090115;28;20188;-76
2022/07/02 02:00:18;;;;;;;2.90;0.97;;;11.50;99.90;;;;;;5089867;28;20176;-75
2022/07/02 02:02:44;;;;;;;1.50;0.73;;;11.50;99.90;;;;;;5089447;28;20204;-76
2022/07/02 02:05:10;;;;;;;2.17;0.90;;;11.40;99.90;;;;;;5079182;28;20458;-72
2022/07/02 02:07:35;;;;;;;1.57;0.90;;;11.30;99.90;;;;;;5103322;28;20179;-75
2022/07/02 02:10:01;;;;;;;1.73;1.07;;;11.30;99.90;;;;;;5090792;28;20562;-76
2022/07/02 02:12:27;;;;;;;2.53;1.00;;;11.30;99.90;;;;;;5087586;28;20218;-76
2022/07/02 02:14:52;;;;;;;1.50;0.70;;;11.30;99.90;;;;;;5084747;28;20664;-77
2022/07/02 02:17:18;;;;;;;1.40;0.70;;;11.30;99.90;;;;;;5088019;28;20180;-78
2022/07/02 02:19:44;;;;;;;6.90;0.93;;;11.30;99.90;;;;;;5087393;28;20176;-76
2022/07/02 02:22:09;;;;;;;4.10;0.90;;;11.30;99.90;;;;;;5086372;28;20215;-76
2022/07/02 02:24:35;;;;;;;1.40;0.67;;;11.30;99.90;;;;;;5087493;28;20762;-77
2022/07/02 02:27:00;;;;;;;1.97;0.80;;;11.20;99.90;;;;;;5087463;28;20184;-78
2022/07/02 02:29:28;;;;;;;4.80;0.93;;;11.10;99.90;;;;;;5086443;28;20199;-77
2022/07/02 02:31:53;;;;;;;2.17;0.87;;;11.20;99.90;;;;;;5086951;28;20175;-72
2022/07/02 02:34:19;;;;;;;5.37;2.30;;;11.20;99.90;;;;;;5087614;28;20419;-75
2022/07/02 02:36:45;;;;;;;5.80;1.30;;;11.20;99.90;;;;;;5087813;28;20184;-77
2022/07/02 02:39:10;;;;;;;1.60;0.80;;;11.20;99.90;;;;;;5086482;28;20183;-76
2022/07/02 02:41:39;;;;;;;1.60;0.80;;;11.10;99.90;;;;;;5087541;28;20423;-79
2022/07/02 02:44:04;;;;;;;5.50;1.40;;;11.10;99.90;;;;;;5082097;28;20209;-76
2022/07/02 02:46:30;;;;;;;2.40;0.80;;;11.10;99.90;;;;;;5068195;28;20420;-76
2022/07/02 02:48:56;;;;;;;1.80;0.93;;;11.10;99.90;;;;;;5085311;28;20172;-73
2022/07/02 02:51:21;;;;;;;1.40;0.60;;;11.10;99.90;;;;;;5088910;28;20177;-76
2022/07/02 02:53:47;;;;;;;3.10;1.30;;;11.00;99.90;;;;;;5087689;28;20733;-76
2022/07/02 02:56:13;;;;;;;14.70;1.27;;;11.00;99.90;;;;;;5089161;28;20188;-76
2022/07/02 02:58:39;;;;;;;6.47;0.87;;;11.00;99.90;;;;;;5089676;28;20898;-75
2022/07/02 03:01:05;;;;;;;1.73;1.00;;;11.00;99.90;;;;;;5092148;28;20459;-73
2022/07/02 03:03:31;;;;;;;1.63;0.80;;;10.90;99.90;;;;;;5092964;28;20211;-76
2022/07/02 03:05:57;;;;;;;1.90;1.00;;;10.90;99.90;;;;;;5092949;28;20231;-76
2022/07/02 03:08:22;;;;;;;1.80;0.80;;;10.90;99.90;;;;;;5093773;28;21001;-76
2022/07/02 03:10:48;;;;;;;2.60;1.07;;;10.90;99.90;;;;;;5094159;28;20192;-76
2022/07/02 03:13:15;;;;;;;1.63;1.00;;;10.90;99.90;;;;;;5103375;28;20192;-74
2022/07/02 03:15:41;;;;;;;7.70;1.50;;;10.90;99.90;;;;;;5101053;28;20438;-77
2022/07/02 03:18:06;;;;;;;1.70;0.80;;;10.80;99.90;;;;;;5096490;28;20455;-78
2022/07/02 03:20:33;;;;;;;3.50;0.90;;;10.80;99.90;;;;;;5091221;28;20489;-76
2022/07/02 03:23:01;;;;;;;2.47;1.27;;;10.80;99.90;;;;;;5090111;28;20196;-78
2022/07/02 03:25:28;;;;;;;1.70;0.80;;;10.80;99.90;;;;;;5089638;28;20427;-76
2022/07/02 03:27:54;;;;;;;6.73;0.80;;;10.80;99.90;;;;;;5090764;28;20426;-76
2022/07/02 03:30:19;;;;;;;1.83;0.80;;;10.80;99.90;;;;;;5091031;28;20427;-76
2022/07/02 03:32:45;;;;;;;3.00;0.80;;;10.80;99.90;;;;;;5090297;28;20204;-76
2022/07/02 03:35:11;;;;;;;3.30;0.90;;;10.80;99.90;;;;;;5090405;28;20652;-76
2022/07/02 03:37:36;;;;;;;3.00;0.97;;;10.70;99.90;;;;;;5091049;28;20180;-76
2022/07/02 03:40:02;;;;;;;2.13;0.70;;;10.70;99.90;;;;;;5090958;28;20676;-75
2022/07/02 03:42:28;;;;;;;7.10;1.30;;;10.60;99.90;;;;;;5090261;28;20231;-76
2022/07/02 03:44:53;;;;;;;1.50;0.70;;;10.60;99.90;;;;;;5092587;28;20461;-75
2022/07/02 03:47:19;;;;;;;1.63;0.77;;;10.60;99.90;;;;;;5090032;28;20181;-75
2022/07/02 03:49:45;;;;;;;8.53;1.00;;;10.60;99.90;;;;;;5091834;28;20199;-75
2022/07/02 03:52:10;;;;;;;2.03;0.73;;;10.70;99.90;;;;;;5091867;28;20276;-76
2022/07/02 03:54:36;;;;;;;1.90;0.97;;;10.70;99.90;;;;;;5093091;28;20181;-75
2022/07/02 03:57:02;;;;;;;6.40;1.30;;;10.70;99.90;;;;;;5092133;28;20316;-75
2022/07/02 03:59:28;;;;;;;5.73;0.80;;;10.70;99.90;;;;;;5091200;28;20291;-76
2022/07/02 04:01:54;;;;;;;2.03;1.17;;;10.80;99.90;;;;;;5091034;28;21018;-75
2022/07/02 04:04:20;;;;;;;1.70;0.60;;;10.70;99.90;;;;;;5091971;28;20201;-75
2022/07/02 04:06:46;;;;;;;1.83;0.80;;;10.80;99.90;;;;;;5090963;28;20263;-75
2022/07/02 04:09:12;;;;;;;1.97;1.03;;;10.80;99.90;;;;;;5091195;28;20552;-75
2022/07/02 04:11:37;;;;;;;8.20;0.90;;;11.00;99.90;;;;;;5090351;28;20661;-74
2022/07/02 04:14:04;;;;;;;12.67;1.57;;;10.90;99.90;;;;;;5091062;28;20425;-77
2022/07/02 04:16:30;;;;;;;1.67;0.77;;;10.90;99.90;;;;;;5084899;28;20716;-76
2022/07/02 04:18:56;;;;;;;1.93;0.90;;;10.90;99.90;;;;;;5082340;28;20411;-73
2022/07/02 04:21:21;;;;;;;3.83;1.10;;;10.90;99.90;;;;;;5088732;28;20729;-76
2022/07/02 04:23:47;;;;;;;1.60;0.87;;;10.90;99.90;;;;;;5088402;28;20813;-70
2022/07/02 04:26:13;;;;;;;2.93;1.10;;;11.00;99.90;;;;;;5089984;28;20176;-75
2022/07/02 04:28:38;;;;;;;2.10;0.90;;;11.00;99.90;;;;;;5090250;28;20169;-75
2022/07/02 04:31:04;;;;;;;2.00;1.30;;;11.00;99.90;;;;;;5089228;28;20172;-76
2022/07/02 04:33:30;;;;;;;1.90;1.07;;;11.10;99.90;;;;;;5088878;28;20215;-75
2022/07/02 04:35:55;;;;;;;2.17;1.00;;;11.10;99.90;;;;;;5089898;28;20267;-75
2022/07/02 04:38:21;;;;;;;1.90;1.00;;;11.10;99.90;;;;;;5090112;28;20184;-75
2022/07/02 04:40:47;;;;;;;1.60;0.70;;;11.10;99.90;;;;;;5090338;28;20226;-76
2022/07/02 04:43:12;;;;;;;17.27;1.30;;;11.20;99.90;;;;;;5090673;28;20287;-77
2022/07/02 04:45:38;;;;;;;3.80;1.40;;;11.30;99.90;;;;;;5091481;28;20184;-73
2022/07/02 04:48:04;;;;;;;1.60;0.80;;;11.30;99.90;;;;;;5090300;28;20181;-77
2022/07/02 04:50:30;;;;;;;10.30;1.60;;;11.40;99.90;;;;;;5089722;28;20246;-71
2022/07/02 04:52:56;;;;;;;11.30;0.97;;;11.40;99.90;;;;;;5090657;28;20954;-75
2022/07/02 04:55:21;;;;;;;6.40;1.20;;;11.50;99.90;;;;;;5091406;28;20737;-74
2022/07/02 04:57:47;;;;;;;2.00;0.90;;;11.50;99.90;;;;;;5091344;28;20188;-77
2022/07/02 05:00:13;;;;;;;2.00;1.00;;;11.60;99.90;;;;;;5091419;28;20184;-75
2022/07/02 05:02:38;;;;;;;1.90;1.20;;;11.60;99.90;;;;;;5089171;28;20236;-75
2022/07/02 05:05:05;;;;;;;2.23;1.30;;;11.70;99.90;;;;;;5090617;28;20504;-75
2022/07/02 05:07:31;;;;;;;7.33;1.60;;;11.70;99.90;;;;;;5089673;28;20184;-70
2022/07/02 05:09:58;;;;;;;2.00;1.20;;;11.80;99.90;;;;;;5090735;28;20487;-75
2022/07/02 05:12:24;;;;;;;2.17;1.40;;;11.90;99.90;;;;;;5088872;28;20201;-77
2022/07/02 05:14:50;;;;;;;2.63;1.40;;;11.90;99.90;;;;;;5078581;28;20426;-77
2022/07/02 05:17:16;;;;;;;2.03;1.20;;;11.90;99.90;;;;;;5081524;28;20869;-79
2022/07/02 05:19:41;;;;;;;3.10;1.37;;;12.00;99.90;;;;;;5088904;28;20489;-76
2022/07/02 05:22:07;;;;;;;2.83;1.40;;;12.00;99.90;;;;;;5086472;28;20235;-75
2022/07/02 05:24:32;;;;;;;3.60;1.53;;;12.10;99.90;;;;;;5089305;28;20200;-76
2022/07/02 05:26:58;;;;;;;2.27;1.30;;;12.20;99.90;;;;;;5088571;28;20282;-76
2022/07/02 05:29:23;;;;;;;3.37;1.90;;;12.30;99.90;;;;;;5089197;28;20220;-75
2022/07/02 05:31:49;;;;;;;2.60;1.67;;;12.30;99.90;;;;;;5086962;28;20187;-76
2022/07/02 05:34:15;;;;;;;4.10;2.10;;;12.40;99.90;;;;;;5089042;28;20819;-75
2022/07/02 05:36:40;;;;;;;3.90;2.37;;;12.50;99.90;;;;;;5089243;28;20211;-75
2022/07/02 05:39:06;;;;;;;12.73;2.33;;;12.70;99.90;;;;;;5089253;28;20184;-78
2022/07/02 05:41:31;;;;;;;5.50;2.10;;;12.80;99.90;;;;;;5088269;28;20183;-76
2022/07/02 05:43:57;;;;;;;3.90;2.50;;;12.90;99.90;;;;;;5072956;28;20246;-78
2022/07/02 05:46:23;;;;;;;3.30;2.03;;;13.00;99.90;;;;;;5068826;28;20189;-76
2022/07/02 05:48:48;;;;;;;5.23;2.60;;;13.10;99.90;;;;;;5068087;28;20609;-78
2022/07/02 05:51:16;;;;;;;4.33;1.87;;;13.20;99.90;;;;;;5069219;28;20189;-78
2022/07/02 05:53:41;;;;;;;3.23;1.90;;;13.30;99.90;;;;;;5072677;28;20271;-75
2022/07/02 05:56:07;;;;;;;11.20;2.80;;;13.50;99.90;;;;;;5074664;28;20493;-76
2022/07/02 05:58:32;;;;;;;4.10;2.43;;;13.60;99.90;;;;;;5068981;28;20220;-76
2022/07/02 06:00:58;;;;;;;2.63;1.53;;;13.70;99.90;;;;;;5076404;28;20184;-73
2022/07/02 06:03:24;;;;;;;3.07;1.77;;;13.70;99.90;;;;;;5069770;28;20726;-77
2022/07/02 06:08:34;;;;;;;3.37;2.30;;;13.90;99.90;;;;;;5069664;28;20574;-72
2022/07/02 06:10:59;;;;;;;3.03;2.00;;;14.00;99.90;;;;;;5070614;28;20439;-78
2022/07/02 06:13:25;;;;;;;4.20;2.23;;;14.10;99.90;;;;;;5078350;28;20204;-77
2022/07/02 06:15:50;;;;;;;3.30;1.80;;;14.10;99.90;;;;;;5088939;28;20184;-78
2022/07/02 06:18:16;;;;;;;5.97;2.27;;;14.30;99.90;;;;;;5084808;28;20577;-77
2022/07/02 06:20:42;;;;;;;3.73;1.73;;;14.40;99.90;;;;;;5072170;28;20672;-77
2022/07/02 06:23:07;;;;;;;2.80;1.37;;;14.60;99.90;;;;;;5066905;28;20251;-77
2022/07/02 06:25:33;;;;;;;1.90;1.20;;;14.70;99.90;;;;;;5075352;28;20180;-79
2022/07/02 06:27:59;;;;;;;3.53;1.60;;;14.80;99.90;;;;;;5067992;28;20180;-76
2022/07/02 06:30:25;;;;;;;2.30;1.10;;;14.90;99.90;;;;;;5068020;28;20423;-78
2022/07/02 06:32:51;;;;;;;2.90;0.97;;;14.90;99.90;;;;;;5067011;28;20527;-77
2022/07/02 06:35:17;;;;;;;1.80;0.80;;;15.10;99.90;;;;;;5066142;28;20207;-77
2022/07/02 06:37:43;;;;;;;2.40;1.20;;;15.20;99.90;;;;;;5067788;28;20419;-77
2022/07/02 06:40:09;;;;;;;2.23;0.90;;;15.30;99.90;;;;;;5067676;28;20871;-77
2022/07/02 06:42:35;;;;;;;1.83;0.93;;;15.40;99.90;;;;;;5067286;28;20204;-77
2022/07/02 06:45:00;;;;;;;2.73;1.10;;;15.50;99.90;;;;;;5067730;28;20229;-77
2022/07/02 06:47:27;;;;;;;2.20;1.23;;;15.60;99.90;;;;;;5066951;28;20904;-77
2022/07/02 06:49:58;;;;;;;1.90;0.90;;;15.70;99.90;;;;;;5069169;28;20183;-77
2022/07/02 06:52:24;;;;;;;1.80;0.90;;;15.70;99.90;;;;;;5068927;28;20431;-77
2022/07/02 06:54:50;;;;;;;1.93;1.00;;;15.90;99.90;;;;;;5069623;28;20427;-77
2022/07/02 06:57:16;;;;;;;1.80;0.80;;;16.10;99.90;;;;;;5069884;28;20419;-77
2022/07/02 06:59:41;;;;;;;2.60;1.03;;;16.20;99.90;;;;;;5069495;28;20258;-76
2022/07/02 07:02:08;;;;;;;2.37;1.40;;;16.20;99.90;;;;;;5072621;28;20249;-77
2022/07/02 07:04:34;;;;;;;2.67;1.13;;;16.30;99.90;;;;;;5078569;28;20571;-78
2022/07/02 07:07:03;;;;;;;2.50;1.20;;;16.40;99.90;;;;;;5069411;28;20434;-74
2022/07/02 07:09:29;;;;;;;1.60;0.70;;;16.60;99.90;;;;;;5074867;28;20427;-80
2022/07/02 07:11:55;;;;;;;2.00;0.90;;;16.70;99.90;;;;;;5072815;28;20418;-79
2022/07/02 07:14:21;;;;;;;1.87;0.80;;;16.90;99.90;;;;;;5084904;28;20415;-77
2022/07/02 07:16:47;;;;;;;1.43;0.67;;;17.10;99.90;;;;;;5088669;28;20208;-79
2022/07/02 07:19:13;;;;;;;3.97;1.00;;;17.40;99.90;;;;;;5084624;28;20493;-75
2022/07/02 07:21:41;;;;;;;2.07;0.73;;;17.60;99.90;;;;;;5086770;28;20184;-77
2022/07/02 07:24:07;;;;;;;1.53;0.60;;;17.80;99.90;;;;;;5085694;28;20318;-72
2022/07/02 07:26:34;;;;;;;1.60;0.67;;;18.20;99.90;;;;;;5071786;28;20439;-77
2022/07/02 07:29:02;;;;;;;1.60;0.67;;;18.30;99.90;;;;;;5075842;28;20475;-77
2022/07/02 07:31:29;;;;;;;2.00;0.80;;;18.60;99.90;;;;;;5066636;28;20408;-77
2022/07/02 07:33:57;;;;;;;1.50;0.63;;;18.90;99.90;;;;;;5067544;28;20438;-78
2022/07/02 07:36:25;;;;;;;1.97;1.00;;;19.10;99.90;;;;;;5067390;28;20419;-78
2022/07/02 07:38:51;;;;;;;2.93;0.90;;;19.40;99.90;;;;;;5067836;28;20423;-79
2022/07/02 07:41:18;;;;;;;1.70;0.70;;;19.80;99.90;;;;;;5067327;28;20454;-78
2022/07/02 07:43:44;;;;;;;1.40;0.60;;;20.30;98.00;;;;;;5072918;28;20996;-78
2022/07/02 07:46:10;;;;;;;1.43;0.53;;;21.10;97.10;;;;;;5083938;28;20538;-77
2022/07/02 07:48:36;;;;;;;1.90;0.70;;;22.40;95.20;;;;;;5081134;28;20177;-78
2022/07/02 07:51:01;;;;;;;1.40;0.50;;;22.80;93.60;;;;;;5074373;28;20238;-80
2022/07/02 07:53:27;;;;;;;1.60;0.63;;;23.80;91.70;;;;;;5076458;28;20204;-81
2022/07/02 07:55:54;;;;;;;1.50;0.70;;;23.90;90.70;;;;;;5088550;28;20184;-79
2022/07/02 07:58:19;;;;;;;1.77;0.50;;;24.00;90.50;;;;;;5085745;28;20178;-78
2022/07/02 08:00:48;;;;;;;1.95;0.80;;;24.20;90.50;;;;;;5085503;28;20184;-79
2022/07/02 08:03:14;;;;;;;2.15;0.73;;;24.50;88.40;;;;;;5089221;28;20667;-78
2022/07/02 08:05:41;;;;;;;1.60;0.65;;;24.20;90.10;;;;;;5074302;28;20244;-78
2022/07/02 08:08:09;;;;;;;4.22;0.80;;;24.50;89.80;;;;;;5089329;28;20173;-78
2022/07/02 08:10:35;;;;;;;2.83;0.82;;;25.40;88.70;;;;;;5076839;28;20209;-78
2022/07/02 08:13:01;;;;;;;2.15;0.75;;;25.90;85.80;;;;;;5074210;28;20208;-77
2022/07/02 08:15:27;;;;;;;1.52;0.63;;;26.50;80.30;;;;;;5092915;28;20275;-78
2022/07/02 08:17:53;;;;;;;1.63;0.63;;;26.10;80.50;;;;;;5085209;28;20188;-78
2022/07/02 08:20:19;;;;;;;2.88;0.90;;;25.30;82.00;;;;;;5086817;28;20652;-78
2022/07/02 08:22:46;;;;;;;1.48;0.55;;;25.30;81.30;;;;;;5084931;28;20257;-79
2022/07/02 08:25:13;;;;;;;1.45;0.52;;;25.80;81.40;;;;;;5088214;28;20561;-81
2022/07/02 08:27:40;;;;;;;10.93;0.60;;;26.30;77.90;;;;;;5075091;28;20820;-78
2022/07/02 08:30:06;;;;;;;3.35;0.75;;;25.80;76.90;;;;;;5087929;28;20270;-79
2022/07/02 08:32:32;;;;;;;1.58;0.60;;;25.70;78.70;;;;;;5087249;28;20215;-80
2022/07/02 08:34:58;;;;;;;2.67;0.77;;;26.30;76.80;;;;;;5073371;28;20188;-79
2022/07/02 08:37:24;;;;;;;1.50;0.57;;;26.40;74.30;;;;;;5072019;28;20594;-78
2022/07/02 08:39:50;;;;;;;1.77;0.60;;;26.20;75.30;;;;;;5076598;28;20200;-80
2022/07/02 08:42:25;;;;;;;1.55;0.65;;;26.20;75.80;;;;;;5077842;28;20261;-78
2022/07/02 08:44:52;;;;;;;1.80;0.60;;;25.80;73.80;;;;;;5071609;28;20680;-80
2022/07/02 08:47:18;;;;;;;4.13;0.60;;;25.60;75.90;;;;;;5086309;28;20187;-75
2022/07/02 08:49:46;;;;;;;1.40;0.55;;;26.00;74.50;;;;;;5071690;28;20180;-78
2022/07/02 08:52:16;;;;;;;1.70;0.60;;;26.60;72.70;;;;;;5071429;28;20196;-79
2022/07/02 08:54:42;;;;;;;1.70;0.63;;;26.60;77.10;;;;;;5078820;28;20649;-78
2022/07/02 08:57:49;;;;;;;1.50;0.57;;;26.00;78.70;;;;;;5077876;28;20189;-79
2022/07/02 09:00:20;;;;;;;1.40;0.50;;;26.60;77.30;;;;;;5091102;28;20180;-82
2022/07/02 09:02:48;;;;;;;2.03;0.73;;;27.20;74.40;;;;;;5081808;28;20208;-81
2022/07/02 09:05:16;;;;;;;2.20;0.80;;;27.30;74.80;;;;;;5072746;28;20204;-80
2022/07/02 09:07:45;;;;;;;1.50;0.60;;;26.80;75.50;;;;;;5073169;28;20195;-81
2022/07/02 09:10:11;;;;;;;1.40;0.50;;;26.70;73.90;;;;;;5084743;28;20205;-80
2022/07/02 09:12:39;;;;;;;1.70;0.70;;;26.60;74.40;;;;;;5086116;28;20253;-79
2022/07/02 09:15:06;;;;;;;1.80;0.70;;;25.90;78.00;;;;;;5077685;28;20200;-79
2022/07/02 09:17:32;;;;;;;1.80;0.70;;;25.80;77.30;;;;;;5088136;28;20237;-80
2022/07/02 09:19:58;;;;;;;1.50;0.52;;;25.90;78.60;;;;;;5083496;28;20192;-78
2022/07/02 09:22:35;;;;;;;3.05;0.68;;;25.70;77.50;;;;;;5084495;28;20209;-78
2022/07/02 09:25:10;;;;;;;2.15;0.90;;;25.80;80.40;;;;;;5083696;28;20305;-81
2022/07/02 09:27:36;;;;;;;6.82;1.65;;;25.50;79.60;;;;;;5077282;28;20179;-82
2022/07/02 09:30:03;;;;;;;1.83;0.80;;;25.80;81.40;;;;;;5083177;28;20183;-80
2022/07/02 09:32:40;;;;;;;4.28;0.68;;;26.30;73.60;;;;;;5076364;28;20201;-79
2022/07/02 09:35:06;;;;;;;1.92;0.77;;;25.60;78.40;;;;;;5069805;28;20260;-79
2022/07/02 09:37:33;;;;;;;1.80;0.70;;;25.90;79.20;;;;;;5082294;28;20257;-81
2022/07/02 09:40:02;;;;;;;2.22;0.77;;;25.60;79.10;;;;;;5084793;28;20184;-79
2022/07/02 09:42:32;;;;;;;1.60;0.70;;;25.80;77.90;;;;;;5079746;28;20211;-81
2022/07/02 09:45:00;;;;;;;1.40;0.60;;;25.80;76.70;;;;;;5073473;28;20299;-77
2022/07/02 09:47:29;;;;;;;1.70;0.70;;;25.30;79.70;;;;;;5094989;28;20161;-84
2022/07/02 09:49:55;;;;;;;2.42;0.80;;;25.30;78.30;;;;;;5115447;28;20168;-80
2022/07/02 09:52:20;;;;;;;2.88;0.95;;;24.90;76.20;;;;;;5103462;28;20256;-82
2022/07/02 09:54:46;;;;;;;1.50;0.60;;;25.10;82.20;;;;;;5114750;28;20168;-84
2022/07/02 09:57:12;;;;;;;2.03;0.60;;;24.90;79.80;;;;;;5106034;28;20239;-85
2022/07/02 09:59:40;;;;;;;1.70;0.70;;;25.20;78.60;;;;;;5100345;28;20194;-83
2022/07/02 10:02:17;;;;;;;3.83;0.73;;;24.90;78.70;;;;;;5085663;28;20198;-77
2022/07/02 10:04:44;;;;;;;2.55;0.77;;;25.60;77.40;;;;;;5091838;28;20214;-80
2022/07/02 10:07:10;;;;;;;1.95;0.70;;;25.60;75.70;;;;;;5088117;28;20549;-79
2022/07/02 10:09:39;;;;;;;1.70;0.70;;;25.30;75.70;;;;;;5087229;28;20172;-79
2022/07/02 10:12:06;;;;;;;3.75;0.73;;;25.20;77.00;;;;;;5086417;28;20199;-80
2022/07/02 10:14:36;;;;;;;1.45;0.60;;;25.70;75.70;;;;;;5086483;28;20180;-78
2022/07/02 10:17:03;;;;;;;1.50;0.60;;;25.80;75.10;;;;;;5088945;28;20593;-79
2022/07/02 10:19:30;;;;;;;5.57;0.80;;;25.60;74.80;;;;;;5082458;28;20197;-78
2022/07/02 10:21:58;;;;;;;1.40;0.60;;;25.20;77.00;;;;;;5079946;28;20198;-79
2022/07/02 10:24:25;;;;;;;1.63;0.75;;;25.50;73.10;;;;;;5085812;28;20242;-80
2022/07/02 10:26:51;;;;;;;1.67;0.68;;;25.40;78.10;;;;;;5082608;28;20549;-80
2022/07/02 10:29:18;;;;;;;1.50;0.60;;;25.10;74.50;;;;;;5087174;28;20191;-79
2022/07/02 10:31:49;;;;;;;1.60;0.60;;;24.80;77.20;;;;;;5094097;28;20259;-82
2022/07/02 10:34:18;;;;;;;1.57;0.60;;;24.60;76.30;;;;;;5117539;28;20189;-84
2022/07/02 10:36:44;;;;;;;2.03;0.70;;;24.80;72.80;;;;;;5109361;28;20399;-82
2022/07/02 10:39:15;;;;;;;1.40;0.50;;;24.70;73.20;;;;;;5110557;28;20452;-83
2022/07/02 10:41:41;;;;;;;1.60;0.57;;;24.40;73.60;;;;;;5112476;28;20271;-82
2022/07/02 10:44:09;;;;;;;1.90;0.60;;;24.40;74.40;;;;;;5118350;28;20480;-81
2022/07/02 10:46:36;;;;;;;2.57;1.00;;;24.00;74.70;;;;;;5100950;28;20181;-76
2022/07/02 10:49:03;;;;;;;2.80;1.00;;;23.60;71.40;;;;;;5105441;28;20489;-78
2022/07/02 10:51:35;;;;;;;1.60;0.60;;;23.50;76.40;;;;;;5081279;28;20992;-76
2022/07/02 10:54:03;;;;;;;4.40;0.73;;;23.50;75.30;;;;;;5084782;28;20920;-78
2022/07/02 10:56:30;;;;;;;1.50;0.50;;;23.80;74.90;;;;;;5086617;28;20410;-78
2022/07/02 10:58:56;;;;;;;2.23;0.73;;;23.80;77.70;;;;;;5085203;28;20471;-78
2022/07/02 11:01:24;;;;;;;8.73;0.60;;;24.00;72.10;;;;;;5088947;28;20498;-78
2022/07/02 11:04:00;;;;;;;2.40;0.87;;;24.20;71.20;;;;;;5088893;28;20458;-81
2022/07/02 11:06:27;;;;;;;1.67;0.63;;;24.40;74.60;;;;;;5088970;28;20461;-78
2022/07/02 11:08:56;;;;;;;1.77;0.70;;;24.60;72.30;;;;;;5089454;28;20728;-78
2022/07/02 11:11:36;;;;;;;1.67;0.70;;;24.90;71.60;;;;;;5079513;28;20435;-77
2022/07/02 11:14:10;;;;;;;6.77;0.60;;;24.60;73.30;;;;;;5078255;28;20427;-78
2022/07/02 11:16:46;;;;;;;1.40;0.50;;;24.90;72.60;;;;;;5087664;28;20485;-78
2022/07/02 11:19:11;;;;;;;1.50;0.60;;;24.80;73.80;;;;;;5089308;28;20455;-80
2022/07/02 11:21:39;;;;;;;2.13;0.60;;;24.60;69.70;;;;;;5091797;28;20449;-78
2022/07/02 11:24:06;;;;;;;3.00;1.10;;;24.60;75.30;;;;;;5084602;28;20270;-78
2022/07/02 11:26:32;;;;;;;1.60;0.50;;;24.60;72.10;;;;;;5078708;28;20695;-78
2022/07/02 11:29:05;;;;;;;1.60;0.60;;;24.70;69.50;;;;;;5089000;28;20414;-77
2022/07/02 11:31:34;;;;;;;1.40;0.50;;;24.90;68.80;;;;;;5088434;28;20195;-74
2022/07/02 11:34:00;;;;;;;1.53;0.60;;;24.90;68.50;;;;;;5086102;28;20514;-80
2022/07/02 11:36:26;;;;;;;1.70;0.50;;;25.00;69.60;;;;;;5087743;28;20493;-77
2022/07/02 11:38:53;;;;;;;1.60;0.70;;;25.00;68.40;;;;;;5085195;28;20258;-74
2022/07/02 11:41:22;;;;;;;1.40;0.50;;;24.80;71.10;;;;;;5090112;28;20202;-77
2022/07/02 11:43:53;;;;;;;1.50;0.50;;;25.10;70.40;;;;;;5089655;28;20470;-77
2022/07/02 11:46:24;;;;;;;3.50;0.73;;;25.00;73.00;;;;;;5081780;28;20452;-82
2022/07/02 11:48:51;;;;;;;1.97;0.60;;;25.00;68.10;;;;;;5083541;28;20409;-77
2022/07/02 11:51:21;;;;;;;2.23;0.80;;;25.10;68.50;;;;;;5087676;28;20921;-77
2022/07/02 11:53:57;;;;;;;1.40;0.50;;;25.00;65.70;;;;;;5082850;28;20498;-78
2022/07/02 11:56:23;;;;;;;1.40;0.50;;;24.60;68.30;;;;;;5081216;28;20418;-77
2022/07/02 11:58:48;;;;;;;1.70;0.70;;;24.80;68.90;;;;;;5077587;28;20474;-77
2022/07/02 12:01:26;;;;;;;1.57;0.60;;;25.10;65.60;;;;;;5084888;28;20248;-78
2022/07/02 12:03:57;;;;;;;1.77;0.70;;;25.00;67.70;;;;;;5083961;28;20298;-79
2022/07/02 12:06:25;;;;;;;1.53;0.60;;;25.20;73.70;;;;;;5086920;28;20414;-78
2022/07/02 12:08:52;;;;;;;1.80;0.50;;;25.40;68.30;;;;;;5080081;28;20406;-79
2022/07/02 12:11:20;;;;;;;1.60;0.60;;;25.40;67.70;;;;;;5089927;28;20430;-79
2022/07/02 12:13:46;;;;;;;1.53;0.57;;;25.20;65.30;;;;;;5082235;28;20446;-77
2022/07/02 12:16:17;;;;;;;1.40;0.47;;;25.10;67.90;;;;;;5084041;28;20433;-78
2022/07/02 12:18:44;;;;;;;2.33;0.90;;;25.50;67.30;;;;;;5079128;28;20423;-80
2022/07/02 12:21:19;;;;;;;1.60;0.57;;;25.70;65.80;;;;;;5088900;28;20426;-78
2022/07/02 12:23:50;;;;;;;1.80;0.50;;;25.60;68.50;;;;;;5081543;28;20465;-76
2022/07/02 12:26:23;;;;;;;1.40;0.50;;;25.50;67.20;;;;;;5085294;28;20407;-77
2022/07/02 12:31:54;;;;;;;2.57;0.83;;;25.40;70.60;;;;;;5085757;28;20417;-77
2022/07/02 12:34:22;;;;;;;4.83;0.70;;;25.40;66.90;;;;;;5087722;28;20491;-78
2022/07/02 12:36:56;;;;;;;1.50;0.60;;;25.20;70.30;;;;;;5091857;28;20790;-77
2022/07/02 12:39:24;;;;;;;1.40;0.60;;;25.00;68.20;;;;;;5081803;28;20446;-77
2022/07/02 12:41:50;;;;;;;1.70;0.60;;;25.20;70.70;;;;;;5089385;28;20430;-75
2022/07/02 12:44:18;;;;;;;1.77;0.70;;;25.20;69.00;;;;;;5093512;28;20500;-77
2022/07/02 12:46:51;;;;;;;7.67;1.00;;;25.00;69.80;;;;;;5085169;28;20421;-78
2022/07/02 12:49:20;;;;;;;6.90;0.70;;;25.30;69.60;;;;;;5080651;28;20425;-77
2022/07/02 12:52:00;;;;;;;1.40;0.50;;;25.30;68.00;;;;;;5085527;28;20407;-78